Molina, Colorado
Current Conditions -  °F | °C
As of 3:53 PM on Thursday 27 Nov 2014 (Local Time) from KGJT Reporting Station
Clear Clear  
Wind Chill: 50°   Ceiling: Unl
Heat Index: 50°   Visibility: 10mi
Dew Point: 27°   Wind: 5mph
Humidity: 41%   Direction: 250°WSW
Pressure: 30.32"   Gusts: NA
Location:  39.19°N, 108.06°W
Report Text: KGJT 272253Z 25004KT 10SM CLR 10/M03 A3032 RMK AO2 SLP264 T01001028
Loading
Personal Weather Stations






























Interactive Weather Map New forecast layout! Learn more

10-Day Weather Forecast

Advertisements
Track Severe Weather on mobile